createdAt,value
2017-12-12T00:00:16.457Z,1.60
2017-12-12T00:02:48.068Z,1.60
2017-12-12T00:05:19.648Z,1.13
2017-12-12T00:07:51.245Z,1.40
2017-12-12T00:10:22.826Z,1.30
2017-12-12T00:12:54.418Z,1.43
2017-12-12T00:15:26.022Z,1.30
2017-12-12T00:17:57.653Z,1.30
2017-12-12T00:20:29.238Z,1.40
2017-12-12T00:23:00.812Z,1.60
2017-12-12T00:25:32.426Z,1.10
2017-12-12T00:28:04.024Z,1.20
2017-12-12T00:30:35.610Z,1.50
2017-12-12T00:33:07.206Z,1.30
2017-12-12T00:35:38.818Z,1.20
2017-12-12T00:38:10.405Z,1.20
2017-12-12T00:40:42.024Z,1.30
2017-12-12T00:43:13.637Z,1.40
2017-12-12T00:45:45.220Z,1.10
2017-12-12T00:48:16.833Z,1.50
2017-12-12T00:50:48.454Z,1.50
2017-12-12T00:53:20.054Z,1.30
2017-12-12T00:55:51.635Z,1.03
2017-12-12T00:58:23.654Z,1.03
2017-12-12T01:00:55.258Z,1.40
2017-12-12T01:03:26.850Z,1.40
2017-12-12T01:05:59.204Z,1.53
2017-12-12T01:08:30.813Z,1.30
2017-12-12T01:11:02.392Z,1.07
2017-12-12T01:13:34.036Z,1.47
2017-12-12T01:16:05.620Z,1.13
2017-12-12T01:18:37.259Z,1.07
2017-12-12T01:21:08.824Z,1.07
2017-12-12T01:23:40.433Z,1.07
2017-12-12T01:26:12.026Z,1.23
2017-12-12T01:28:43.624Z,0.90
2017-12-12T01:31:15.205Z,1.10
2017-12-12T01:33:46.820Z,0.73
2017-12-12T01:36:18.392Z,1.27
2017-12-12T01:38:49.989Z,1.03
2017-12-12T01:41:21.577Z,1.13
2017-12-12T01:43:53.180Z,1.03
2017-12-12T01:46:24.794Z,1.50
2017-12-12T01:48:56.384Z,0.97
2017-12-12T01:51:27.961Z,1.37
2017-12-12T01:53:59.603Z,0.87
2017-12-12T01:56:31.197Z,1.20
2017-12-12T01:59:02.801Z,0.97
2017-12-12T02:01:34.380Z,1.40
2017-12-12T02:04:05.987Z,1.10
2017-12-12T02:06:37.561Z,0.80
2017-12-12T02:09:09.168Z,4.40
2017-12-12T02:11:40.748Z,1.10
2017-12-12T02:14:12.354Z,1.10
2017-12-12T02:16:43.960Z,1.20
2017-12-12T02:19:15.532Z,1.03
2017-12-12T02:21:47.125Z,1.10
2017-12-12T02:24:18.716Z,1.70
2017-12-12T02:26:50.313Z,1.10
2017-12-12T02:29:21.913Z,1.03
2017-12-12T02:31:53.488Z,1.47
2017-12-12T02:34:25.093Z,1.20
2017-12-12T02:36:56.697Z,1.03
2017-12-12T02:39:28.268Z,1.23
2017-12-12T02:41:59.864Z,1.40
2017-12-12T02:44:31.474Z,1.23
2017-12-12T02:47:03.049Z,1.20
2017-12-12T02:49:34.649Z,1.47
2017-12-12T02:52:06.237Z,1.63
2017-12-12T02:54:37.846Z,1.17
2017-12-12T02:57:09.458Z,1.60
2017-12-12T02:59:41.064Z,1.50
2017-12-12T03:02:12.676Z,1.43
2017-12-12T03:04:44.261Z,1.10
2017-12-12T03:07:15.849Z,1.67
2017-12-12T03:09:47.465Z,1.60
2017-12-12T03:12:19.052Z,1.10
2017-12-12T03:14:50.651Z,1.70
2017-12-12T03:17:22.284Z,1.40
2017-12-12T03:19:54.580Z,1.60
2017-12-12T03:22:26.181Z,1.67
2017-12-12T03:24:57.745Z,1.63
2017-12-12T03:27:29.367Z,1.63
2017-12-12T03:30:00.949Z,1.30
2017-12-12T03:32:32.552Z,1.23
2017-12-12T03:35:04.155Z,1.50
2017-12-12T03:37:35.763Z,1.53
2017-12-12T03:40:07.347Z,1.40
2017-12-12T03:42:38.945Z,1.30
2017-12-12T03:45:10.528Z,1.10
2017-12-12T03:47:42.129Z,1.00
2017-12-12T03:50:13.714Z,1.23
2017-12-12T03:52:45.315Z,1.40
2017-12-12T03:55:16.916Z,1.07
2017-12-12T03:57:48.525Z,0.90
2017-12-12T04:00:20.159Z,0.90
2017-12-12T04:02:51.751Z,1.13
2017-12-12T04:05:23.352Z,0.97
2017-12-12T04:07:54.956Z,1.27
2017-12-12T04:10:26.575Z,0.80
2017-12-12T04:12:58.181Z,0.93
2017-12-12T04:15:29.763Z,0.87
2017-12-12T04:18:01.340Z,0.90
2017-12-12T04:20:32.945Z,0.87
2017-12-12T04:23:04.551Z,0.90
2017-12-12T04:25:36.144Z,2.87
2017-12-12T04:28:07.744Z,0.90
2017-12-12T04:30:39.337Z,0.80
2017-12-12T04:33:10.938Z,0.90
2017-12-12T04:35:42.544Z,0.80
2017-12-12T04:38:14.105Z,0.80
2017-12-12T04:40:45.714Z,0.70
2017-12-12T04:43:17.281Z,0.80
2017-12-12T04:45:48.899Z,0.83
2017-12-12T04:48:20.488Z,1.00
2017-12-12T04:50:52.088Z,1.00
2017-12-12T04:53:23.697Z,0.93
2017-12-12T04:55:55.289Z,2.43
2017-12-12T04:58:26.900Z,1.00
2017-12-12T05:00:58.493Z,1.00
2017-12-12T05:03:30.115Z,0.90
2017-12-12T05:06:01.717Z,0.80
2017-12-12T05:08:33.294Z,0.90
2017-12-12T05:11:04.900Z,0.87
2017-12-12T05:13:36.492Z,1.00
2017-12-12T05:16:08.075Z,1.30
2017-12-12T05:18:39.712Z,1.10
2017-12-12T05:21:11.325Z,1.30
2017-12-12T05:23:42.904Z,1.00
2017-12-12T05:26:14.514Z,1.10
2017-12-12T05:28:46.095Z,1.07
2017-12-12T05:31:17.713Z,0.90
2017-12-12T05:33:49.302Z,1.10
2017-12-12T05:36:20.904Z,1.10
2017-12-12T05:38:52.485Z,1.23
2017-12-12T05:41:24.088Z,1.53
2017-12-12T05:43:55.685Z,1.00
2017-12-12T05:46:27.304Z,1.03
2017-12-12T05:48:58.906Z,1.30
2017-12-12T05:51:30.480Z,1.83
2017-12-12T05:54:02.061Z,1.70
2017-12-12T05:56:33.655Z,1.00
2017-12-12T05:59:05.288Z,1.97
2017-12-12T06:01:36.882Z,2.00
2017-12-12T06:04:08.491Z,2.70
2017-12-12T06:06:40.094Z,2.30
2017-12-12T06:09:11.696Z,2.47
2017-12-12T06:11:43.294Z,2.00
2017-12-12T06:14:14.960Z,3.27
2017-12-12T06:16:46.637Z,2.87
2017-12-12T06:19:18.228Z,3.40
2017-12-12T06:21:49.828Z,2.63
2017-12-12T06:24:21.424Z,2.63
2017-12-12T06:26:53.332Z,3.43
2017-12-12T06:29:24.954Z,3.20
2017-12-12T06:31:56.608Z,3.50
2017-12-12T06:34:28.259Z,3.27
2017-12-12T06:36:59.904Z,3.43
2017-12-12T06:39:31.532Z,3.47
2017-12-12T06:42:03.116Z,3.03
2017-12-12T06:44:34.716Z,3.63
2017-12-12T06:47:06.324Z,3.23
2017-12-12T06:49:37.952Z,3.10
2017-12-12T06:52:09.567Z,5.30
2017-12-12T06:54:41.200Z,4.27
2017-12-12T06:57:12.833Z,4.43
2017-12-12T06:59:44.413Z,2.93
2017-12-12T07:02:16.004Z,3.53
2017-12-12T07:04:47.697Z,2.50
2017-12-12T07:07:19.333Z,3.83
2017-12-12T07:09:50.952Z,3.20
2017-12-12T07:12:22.613Z,2.57
2017-12-12T07:14:54.216Z,2.73
2017-12-12T07:17:25.834Z,3.20
2017-12-12T07:19:57.473Z,2.97
2017-12-12T07:22:29.085Z,2.93
2017-12-12T07:25:00.682Z,4.10
2017-12-12T07:27:32.292Z,3.90
2017-12-12T07:30:03.877Z,3.50
2017-12-12T07:32:35.474Z,3.67
2017-12-12T07:35:07.078Z,3.17
2017-12-12T07:37:38.690Z,3.40
2017-12-12T07:40:10.276Z,3.30
2017-12-12T07:42:41.865Z,3.27
2017-12-12T07:45:13.467Z,3.30
2017-12-12T07:47:45.107Z,3.80
2017-12-12T07:50:17.018Z,4.23
2017-12-12T07:52:49.373Z,3.33
2017-12-12T07:55:20.953Z,2.83
2017-12-12T07:57:52.831Z,2.53
2017-12-12T08:00:24.444Z,3.20
2017-12-12T08:02:56.025Z,3.47
2017-12-12T08:05:27.629Z,3.30
2017-12-12T08:07:59.226Z,3.70
2017-12-12T08:10:30.828Z,4.63
2017-12-12T08:13:02.404Z,2.67
2017-12-12T08:15:34.016Z,3.93
2017-12-12T08:18:05.612Z,3.07
2017-12-12T08:20:37.217Z,3.30
2017-12-12T08:23:08.824Z,3.27
2017-12-12T08:25:40.434Z,2.10
2017-12-12T08:28:12.950Z,3.30
2017-12-12T08:30:44.543Z,2.93
2017-12-12T08:33:16.153Z,2.87
2017-12-12T08:35:47.747Z,3.23
2017-12-12T08:38:19.325Z,4.93
2017-12-12T08:40:50.930Z,3.80
2017-12-12T08:43:22.500Z,3.83
2017-12-12T08:45:54.110Z,3.70
2017-12-12T08:48:25.702Z,3.60
2017-12-12T08:50:57.304Z,5.03
2017-12-12T08:53:28.911Z,5.47
2017-12-12T08:56:00.497Z,3.40
2017-12-12T08:58:32.104Z,3.80
2017-12-12T09:01:03.691Z,3.13
2017-12-12T09:03:35.333Z,3.43
2017-12-12T09:06:06.856Z,3.47
2017-12-12T09:08:40.178Z,3.30
2017-12-12T09:11:11.784Z,2.97
2017-12-12T09:13:43.372Z,4.67
2017-12-12T09:16:15.713Z,3.23
2017-12-12T09:18:47.643Z,3.37
2017-12-12T09:21:19.252Z,2.63
2017-12-12T09:23:51.167Z,2.73
2017-12-12T09:26:23.325Z,3.13
2017-12-12T09:28:54.904Z,4.07
2017-12-12T09:31:26.500Z,2.77
2017-12-12T09:33:58.079Z,2.67
2017-12-12T09:36:30.052Z,3.20
2017-12-12T09:39:01.618Z,3.20
2017-12-12T09:41:33.237Z,3.33
2017-12-12T09:44:04.832Z,4.10
2017-12-12T09:46:36.455Z,3.40
2017-12-12T09:49:08.020Z,2.93
2017-12-12T09:51:39.666Z,4.83
2017-12-12T09:54:11.236Z,2.93
2017-12-12T09:56:42.846Z,2.97
2017-12-12T09:59:14.420Z,3.17
2017-12-12T10:01:46.012Z,3.43
2017-12-12T10:04:17.627Z,3.53
2017-12-12T10:06:49.215Z,3.67
2017-12-12T10:09:20.817Z,3.43
2017-12-12T10:11:52.393Z,5.03
2017-12-12T10:14:23.989Z,2.40
2017-12-12T10:16:55.577Z,3.80
2017-12-12T10:19:27.182Z,3.37
2017-12-12T10:21:58.782Z,2.67
2017-12-12T10:24:30.374Z,2.37
2017-12-12T10:27:01.988Z,2.60
2017-12-12T10:29:33.598Z,2.77
2017-12-12T10:32:05.205Z,3.10
2017-12-12T10:34:36.788Z,3.10
2017-12-12T10:37:08.368Z,2.60
2017-12-12T10:39:39.984Z,2.73
2017-12-12T10:42:11.564Z,2.63
2017-12-12T10:44:43.189Z,2.73
2017-12-12T10:47:14.800Z,3.63
2017-12-12T10:49:46.401Z,2.53
2017-12-12T10:52:18.001Z,2.50
2017-12-12T10:54:49.603Z,3.20
2017-12-12T10:57:21.221Z,2.60
2017-12-12T10:59:53.198Z,2.53
2017-12-12T11:02:24.792Z,3.27
2017-12-12T11:04:56.413Z,3.07
2017-12-12T11:07:28.001Z,2.93
2017-12-12T11:09:59.625Z,2.30
2017-12-12T11:12:31.241Z,3.13
2017-12-12T11:15:02.886Z,5.27
2017-12-12T11:17:34.497Z,2.57
2017-12-12T11:20:06.085Z,2.60
2017-12-12T11:22:37.664Z,2.87
2017-12-12T11:25:09.242Z,2.80
2017-12-12T11:27:40.853Z,3.27
2017-12-12T11:30:12.737Z,2.83
2017-12-12T11:32:44.313Z,2.60
2017-12-12T11:35:15.920Z,2.77
2017-12-12T11:37:47.514Z,2.37
2017-12-12T11:40:19.116Z,3.00
2017-12-12T11:42:50.728Z,2.87
2017-12-12T11:45:22.320Z,3.10
2017-12-12T11:47:53.936Z,2.97
2017-12-12T11:50:25.545Z,3.90
2017-12-12T11:52:57.177Z,2.57
2017-12-12T11:55:28.765Z,2.97
2017-12-12T11:58:00.407Z,3.77
2017-12-12T12:00:32.008Z,2.93
2017-12-12T12:03:03.610Z,3.03
2017-12-12T12:05:35.200Z,2.80
2017-12-12T12:08:06.816Z,3.40
2017-12-12T12:10:38.464Z,3.43
2017-12-12T12:13:10.056Z,3.57
2017-12-12T12:15:41.657Z,3.53
2017-12-12T12:18:13.244Z,4.37
2017-12-12T12:20:44.863Z,3.70
2017-12-12T12:23:16.456Z,3.17
2017-12-12T12:25:48.079Z,3.23
2017-12-12T12:28:19.668Z,4.37
2017-12-12T12:30:51.280Z,3.90
2017-12-12T12:33:22.883Z,4.03
2017-12-12T12:35:54.494Z,4.23
2017-12-12T12:38:26.108Z,3.20
2017-12-12T12:40:57.732Z,3.10
2017-12-12T12:43:30.252Z,3.63
2017-12-12T12:46:01.892Z,3.60
2017-12-12T12:48:33.444Z,3.40
2017-12-12T12:51:05.077Z,2.40
2017-12-12T12:53:36.670Z,4.00
2017-12-12T12:56:08.392Z,2.60
2017-12-12T12:58:40.008Z,3.23
2017-12-12T13:01:11.580Z,3.47
2017-12-12T13:03:43.186Z,3.20
2017-12-12T13:06:14.761Z,3.17
2017-12-12T13:08:46.364Z,3.17
2017-12-12T13:11:17.970Z,4.73
2017-12-12T13:13:49.587Z,3.10
2017-12-12T13:16:21.166Z,2.70
2017-12-12T13:18:52.770Z,2.80
2017-12-12T13:21:24.388Z,3.97
2017-12-12T13:23:55.972Z,3.20
2017-12-12T13:26:28.136Z,2.90
2017-12-12T13:28:59.734Z,3.10
2017-12-12T13:31:31.596Z,3.67
2017-12-12T13:34:03.174Z,5.07
2017-12-12T13:36:34.782Z,3.30
2017-12-12T13:39:06.370Z,3.13
2017-12-12T13:41:37.993Z,3.30
2017-12-12T13:44:09.576Z,3.63
2017-12-12T13:46:41.186Z,3.27
2017-12-12T13:49:12.791Z,3.77
2017-12-12T13:51:44.388Z,3.70
2017-12-12T13:54:16.074Z,3.20
2017-12-12T13:56:47.684Z,3.37
2017-12-12T13:59:19.264Z,4.37
2017-12-12T14:01:50.872Z,3.00
2017-12-12T14:04:22.457Z,3.13
2017-12-12T14:06:54.065Z,3.20
2017-12-12T14:09:25.664Z,3.40
2017-12-12T14:11:57.281Z,3.30
2017-12-12T14:14:28.884Z,3.27
2017-12-12T14:17:00.495Z,3.00
2017-12-12T14:19:32.069Z,2.90
2017-12-12T14:22:03.711Z,3.10
2017-12-12T14:24:35.284Z,3.23
2017-12-12T14:27:06.883Z,2.30
2017-12-12T14:29:38.481Z,2.30
2017-12-12T14:32:10.124Z,2.70
2017-12-12T14:34:41.732Z,2.30
2017-12-12T14:37:13.323Z,2.30
2017-12-12T14:39:44.938Z,2.20
2017-12-12T14:42:16.580Z,2.50
2017-12-12T14:44:48.172Z,2.47
2017-12-12T14:47:19.792Z,2.47
2017-12-12T14:49:51.400Z,2.20
2017-12-12T14:52:23.026Z,2.20
2017-12-12T14:54:54.614Z,2.43
2017-12-12T14:57:26.230Z,2.73
2017-12-12T14:59:57.852Z,2.30
2017-12-12T15:02:29.457Z,5.10
2017-12-12T15:05:01.055Z,3.20
2017-12-12T15:07:32.666Z,2.30
2017-12-12T15:10:04.303Z,2.43
2017-12-12T15:12:35.911Z,2.30
2017-12-12T15:15:07.544Z,5.17
2017-12-12T15:17:39.125Z,2.03
2017-12-12T15:20:10.737Z,2.33
2017-12-12T15:22:42.317Z,2.40
2017-12-12T15:25:13.921Z,2.90
2017-12-12T15:27:45.508Z,2.33
2017-12-12T15:30:17.160Z,3.23
2017-12-12T15:32:48.752Z,3.47
2017-12-12T15:35:20.363Z,2.60
2017-12-12T15:37:51.931Z,2.43
2017-12-12T15:40:23.537Z,2.50
2017-12-12T15:42:55.147Z,3.83
2017-12-12T15:45:26.745Z,2.87
2017-12-12T15:47:58.332Z,3.23
2017-12-12T15:50:29.913Z,4.10
2017-12-12T15:53:01.532Z,4.17
2017-12-12T15:55:33.146Z,4.47
2017-12-12T15:58:04.750Z,4.10
2017-12-12T16:00:37.801Z,4.63
2017-12-12T16:03:09.412Z,8.37
2017-12-12T16:05:40.992Z,5.73
2017-12-12T16:08:12.602Z,5.03
2017-12-12T16:10:44.172Z,5.70
2017-12-12T16:13:16.604Z,7.23
2017-12-12T16:15:48.194Z,7.13
2017-12-12T16:18:19.803Z,5.37
2017-12-12T16:20:51.381Z,6.33
2017-12-12T16:23:23.000Z,4.80
2017-12-12T16:25:54.592Z,6.10
2017-12-12T16:28:26.206Z,7.33
2017-12-12T16:30:57.776Z,5.43
2017-12-12T16:33:29.368Z,6.77
2017-12-12T16:36:00.966Z,9.13
2017-12-12T16:38:32.572Z,4.73
2017-12-12T16:41:04.201Z,6.93
2017-12-12T16:43:35.781Z,8.87
2017-12-12T16:46:07.377Z,8.43
2017-12-12T16:48:38.952Z,7.23
2017-12-12T16:51:10.545Z,8.47
2017-12-12T16:53:42.189Z,8.87
2017-12-12T16:56:13.820Z,5.97
2017-12-12T16:58:45.425Z,7.23
2017-12-12T17:01:17.002Z,7.17
2017-12-12T17:03:48.620Z,9.93
2017-12-12T17:06:20.201Z,9.50
2017-12-12T17:08:51.872Z,15.83
2017-12-12T17:11:24.750Z,9.63
2017-12-12T17:13:56.360Z,10.67
2017-12-12T17:16:27.967Z,10.10
2017-12-12T17:18:59.564Z,10.77
2017-12-12T17:21:31.191Z,9.33
2017-12-12T17:24:02.773Z,9.23
2017-12-12T17:26:34.388Z,8.73
2017-12-12T17:29:05.979Z,7.97
2017-12-12T17:31:37.557Z,9.97
2017-12-12T17:34:09.162Z,7.63
2017-12-12T17:36:40.746Z,6.03
2017-12-12T17:39:12.361Z,7.27
2017-12-12T17:41:43.948Z,6.23
2017-12-12T17:44:15.553Z,5.50
2017-12-12T17:46:47.128Z,7.00
2017-12-12T17:49:18.732Z,5.63
2017-12-12T17:51:50.306Z,5.90
2017-12-12T17:54:21.921Z,6.70
2017-12-12T17:56:53.488Z,6.23
2017-12-12T17:59:25.096Z,6.47
2017-12-12T18:01:56.700Z,8.10
2017-12-12T18:04:28.292Z,7.37
2017-12-12T18:06:59.868Z,8.00
2017-12-12T18:09:31.501Z,6.73
2017-12-12T18:12:03.069Z,6.37
2017-12-12T18:14:34.656Z,7.27
2017-12-12T18:17:06.268Z,7.80
2017-12-12T18:19:37.900Z,7.73
2017-12-12T18:22:09.493Z,7.63
2017-12-12T18:24:41.108Z,10.20
2017-12-12T18:27:12.728Z,9.20
2017-12-12T18:29:44.351Z,8.43
2017-12-12T18:32:15.970Z,8.50
2017-12-12T18:34:47.555Z,9.23
2017-12-12T18:37:19.182Z,7.83
2017-12-12T18:39:50.760Z,8.17
2017-12-12T18:42:22.369Z,10.20
2017-12-12T18:44:53.968Z,11.23
2017-12-12T18:47:25.580Z,9.13
2017-12-12T18:49:57.190Z,8.17
2017-12-12T18:52:28.775Z,8.93
2017-12-12T18:55:00.390Z,7.20
2017-12-12T18:57:31.948Z,9.73
2017-12-12T19:00:03.598Z,7.93
2017-12-12T19:02:35.191Z,8.47
2017-12-12T19:05:06.799Z,7.53
2017-12-12T19:07:38.401Z,6.90
2017-12-12T19:10:10.009Z,9.17
2017-12-12T19:12:41.610Z,6.17
2017-12-12T19:15:13.216Z,7.43
2017-12-12T19:17:44.822Z,7.87
2017-12-12T19:20:16.425Z,7.43
2017-12-12T19:22:48.030Z,7.40
2017-12-12T19:25:19.635Z,8.37
2017-12-12T19:27:51.248Z,9.33
2017-12-12T19:30:22.860Z,11.47
2017-12-12T19:32:54.436Z,8.80
2017-12-12T19:35:26.040Z,8.10
2017-12-12T19:37:57.664Z,9.50
2017-12-12T19:40:29.306Z,6.17
2017-12-12T19:43:00.894Z,8.40
2017-12-12T19:45:32.495Z,8.63
2017-12-12T19:48:04.095Z,5.97
2017-12-12T19:50:35.720Z,6.50
2017-12-12T19:53:07.332Z,10.70
2017-12-12T19:55:38.967Z,10.80
2017-12-12T19:58:10.596Z,9.90
2017-12-12T20:00:42.258Z,11.63
2017-12-12T20:03:13.876Z,8.13
2017-12-12T20:05:45.501Z,6.47
2017-12-12T20:08:17.074Z,7.60
2017-12-12T20:10:48.704Z,7.70
2017-12-12T20:13:20.288Z,7.87
2017-12-12T20:15:51.923Z,6.23
2017-12-12T20:18:23.516Z,6.70
2017-12-12T20:20:55.116Z,6.23
2017-12-12T20:23:26.694Z,6.77
2017-12-12T20:25:58.338Z,6.50
2017-12-12T20:28:29.921Z,8.03
2017-12-12T20:31:01.559Z,7.97
2017-12-12T20:33:33.165Z,7.07
2017-12-12T20:36:04.760Z,5.80
2017-12-12T20:38:36.385Z,9.27
2017-12-12T20:41:07.964Z,8.87
2017-12-12T20:43:39.584Z,7.83
2017-12-12T20:46:11.194Z,6.10
2017-12-12T20:48:42.781Z,6.93
2017-12-12T20:51:14.360Z,5.83
2017-12-12T20:53:45.995Z,6.93
2017-12-12T20:56:17.613Z,6.33
2017-12-12T20:58:49.241Z,26.60
2017-12-12T21:01:20.829Z,8.27
2017-12-12T21:03:52.474Z,6.10
2017-12-12T21:06:24.027Z,7.43
2017-12-12T21:08:55.647Z,6.23
2017-12-12T21:11:27.322Z,7.87
2017-12-12T21:13:58.894Z,6.80
2017-12-12T21:16:30.533Z,6.53
2017-12-12T21:19:02.123Z,6.77
2017-12-12T21:21:33.770Z,10.00
2017-12-12T21:24:05.382Z,8.77
2017-12-12T21:26:36.978Z,6.80
2017-12-12T21:29:08.605Z,8.60
2017-12-12T21:31:40.180Z,7.53
2017-12-12T21:34:11.789Z,6.43
2017-12-12T21:36:43.365Z,6.73
2017-12-12T21:39:14.976Z,6.13
2017-12-12T21:41:46.648Z,7.53
2017-12-12T21:44:18.162Z,9.53
2017-12-12T21:46:49.768Z,9.63
2017-12-12T21:49:21.334Z,8.23
2017-12-12T21:51:52.960Z,10.23
2017-12-12T21:54:24.574Z,10.87
2017-12-12T21:56:58.484Z,10.20
2017-12-12T21:59:30.044Z,9.40
2017-12-12T22:02:03.109Z,10.30
2017-12-12T22:07:23.601Z,10.05
2017-12-12T23:12:04.760Z,7.20
2017-12-12T23:14:36.355Z,8.10
2017-12-12T23:17:07.944Z,9.07
2017-12-12T23:19:39.541Z,10.37
2017-12-12T23:22:11.141Z,9.80
2017-12-12T23:24:42.720Z,9.23
2017-12-12T23:27:14.333Z,9.23
2017-12-12T23:29:45.894Z,9.80
2017-12-12T23:32:17.497Z,9.07
2017-12-12T23:34:49.096Z,9.13
2017-12-12T23:37:20.720Z,11.03
2017-12-12T23:39:52.308Z,9.03
2017-12-12T23:42:23.933Z,9.93
2017-12-12T23:44:55.521Z,9.50
2017-12-12T23:47:27.129Z,8.17
2017-12-12T23:49:58.729Z,9.80
2017-12-12T23:52:30.342Z,10.03
2017-12-12T23:55:01.970Z,8.57
2017-12-12T23:57:33.557Z,10.17
